Time;durP1;ratioP1;P1;durP2;ratioP2;P2;SDS_P1;SDS_P2;PMS_P1;PMS_P2;Temp;Humidity;BMP_temperature;BMP_pressure;BME280_temperature;BME280_humidity;BME280_pressure;Samples;Min_cycle;Max_cycle;Signal;HPM_P1;HPM_P2
2023/09/03 00:00:25;;;;;;;15.25;12.38;;;;;;;;;;5074524;28;20917;-83
2023/09/03 00:02:53;;;;;;;14.75;11.93;;;14.00;99.90;;;;;;5104460;28;20411;-83
2023/09/03 00:05:19;;;;;;;16.55;12.70;;;14.20;99.90;;;;;;5095706;28;20408;-84
2023/09/03 00:07:45;;;;;;;16.23;12.90;;;14.20;99.90;;;;;;5095084;28;20439;-84
2023/09/03 00:10:10;;;;;;;14.77;11.70;;;13.90;99.90;;;;;;5094674;28;20931;-84
2023/09/03 00:12:36;;;;;;;15.60;12.50;;;14.00;99.90;;;;;;5092844;28;20416;-84
2023/09/03 00:15:02;;;;;;;16.43;13.13;;;14.00;99.90;;;;;;5094194;28;20412;-83
2023/09/03 00:17:28;;;;;;;15.97;12.93;;;;;;;;;;5094798;28;20403;-84
2023/09/03 00:19:54;;;;;;;15.52;11.80;;;13.90;99.90;;;;;;5094223;28;20442;-84
2023/09/03 00:22:20;;;;;;;15.90;12.32;;;14.10;99.90;;;;;;5094952;28;20404;-83
2023/09/03 00:24:46;;;;;;;15.23;12.80;;;14.10;99.90;;;;;;5111970;28;20899;-84
2023/09/03 00:27:11;;;;;;;23.13;14.13;;;13.90;99.90;;;;;;5077905;28;20419;-84
2023/09/03 00:29:37;;;;;;;15.60;12.70;;;13.90;99.90;;;;;;5113273;28;20538;-85
2023/09/03 00:32:03;;;;;;;12.95;11.18;;;;;;;;;;5098623;28;20396;-84
2023/09/03 00:34:30;;;;;;;13.83;10.93;;;13.80;99.90;;;;;;5115256;28;20403;-85
2023/09/03 00:36:56;;;;;;;13.35;10.45;;;13.70;99.90;;;;;;5149831;27;20748;-85
2023/09/03 00:39:21;;;;;;;13.93;10.65;;;13.80;99.90;;;;;;5098254;28;20392;-84
2023/09/03 00:41:47;;;;;;;11.27;9.95;;;13.70;99.90;;;;;;5078243;28;20516;-85
2023/09/03 00:44:14;;;;;;;10.80;9.60;;;13.60;99.90;;;;;;5095004;28;20433;-83
2023/09/03 00:46:42;;;;;;;13.77;9.67;;;13.60;99.90;;;;;;5095331;28;20455;-84
2023/09/03 00:49:10;;;;;;;11.05;9.63;;;13.60;99.90;;;;;;5128651;27;20422;-84
2023/09/03 00:51:36;;;;;;;11.23;9.70;;;13.40;99.90;;;;;;5078023;28;20413;-83
2023/09/03 00:54:03;;;;;;;11.48;9.80;;;13.40;99.90;;;;;;5095449;28;20511;-84
2023/09/03 00:56:30;;;;;;;11.90;9.88;;;;;;;;;;5128957;27;20413;-83
2023/09/03 00:58:56;;;;;;;13.55;10.50;;;13.50;99.90;;;;;;5095105;28;20406;-83
2023/09/03 01:01:22;;;;;;;13.27;10.48;;;13.20;99.90;;;;;;5129482;27;20409;-83
2023/09/03 01:03:48;;;;;;;13.23;10.65;;;13.30;99.90;;;;;;5134611;27;20974;-84
2023/09/03 01:06:14;;;;;;;14.35;10.52;;;13.60;99.90;;;;;;5093176;28;20390;-83
2023/09/03 01:08:40;;;;;;;16.30;11.43;;;13.50;99.90;;;;;;5099146;28;20884;-83
2023/09/03 01:11:28;;;;;;;15.30;11.90;;;13.50;99.90;;;;;;5117598;27;20548;-84
2023/09/03 01:14:11;;;;;;;17.45;13.02;;;13.30;99.90;;;;;;5104363;28;20426;-84
2023/09/03 01:17:02;;;;;;;13.68;11.68;;;13.30;99.90;;;;;;5097442;28;20401;-83
2023/09/03 01:19:54;;;;;;;13.80;11.65;;;13.60;99.90;;;;;;5094443;28;20429;-83
2023/09/03 01:22:29;;;;;;;13.23;11.45;;;13.30;99.90;;;;;;5142180;27;20413;-83
2023/09/03 01:25:20;;;;;;;13.13;10.63;;;13.40;99.90;;;;;;5111834;28;20402;-83
2023/09/03 01:27:59;;;;;;;11.38;9.80;;;;;;;;;;5106418;28;20427;-84
2023/09/03 01:30:25;;;;;;;10.63;9.35;;;13.60;99.90;;;;;;5114209;28;20424;-84
2023/09/03 01:32:51;;;;;;;12.10;10.43;;;13.60;99.90;;;;;;5115591;28;20415;-84
2023/09/03 01:35:19;;;;;;;13.80;10.80;;;13.60;99.90;;;;;;5093563;28;20416;-84
2023/09/03 01:37:45;;;;;;;11.65;10.02;;;13.50;99.90;;;;;;5102519;28;20892;-84
2023/09/03 01:40:11;;;;;;;11.63;10.43;;;13.40;99.90;;;;;;5147934;27;20400;-84
2023/09/03 01:42:36;;;;;;;12.50;10.17;;;13.20;99.90;;;;;;5087181;28;20420;-83
2023/09/03 01:45:03;;;;;;;11.10;9.90;;;13.50;99.90;;;;;;5114886;28;20411;-85
2023/09/03 01:47:49;;;;;;;11.45;10.25;;;13.50;99.90;;;;;;5099089;28;20450;-85
2023/09/03 01:50:34;;;;;;;11.53;10.33;;;13.70;99.90;;;;;;5115933;28;21498;-84
2023/09/03 01:53:09;;;;;;;13.35;11.18;;;13.60;99.90;;;;;;5099985;28;20404;-84
2023/09/03 01:55:39;;;;;;;12.38;10.90;;;13.40;99.90;;;;;;5151597;27;20594;-84
2023/09/03 01:58:07;;;;;;;13.38;11.88;;;;;;;;;;5150662;27;20500;-84
2023/09/03 02:00:34;;;;;;;12.57;11.27;;;13.70;99.90;;;;;;5117264;28;20465;-83
2023/09/03 02:03:03;;;;;;;12.90;10.70;;;13.40;99.90;;;;;;5083770;28;20794;-84
2023/09/03 02:05:29;;;;;;;12.87;11.03;;;13.50;99.90;;;;;;5115913;28;20744;-84
2023/09/03 02:07:55;;;;;;;12.73;11.43;;;13.50;99.90;;;;;;5096967;28;20876;-84
2023/09/03 02:10:20;;;;;;;14.57;12.15;;;13.50;99.90;;;;;;5094822;28;20473;-84
2023/09/03 02:12:46;;;;;;;14.90;12.53;;;13.40;99.90;;;;;;5081956;28;20404;-84
2023/09/03 02:15:12;;;;;;;15.50;12.97;;;13.50;99.90;;;;;;5118867;28;20404;-83
2023/09/03 02:17:38;;;;;;;18.25;13.05;;;;;;;;;;5100806;28;20760;-84
2023/09/03 02:20:04;;;;;;;14.85;12.98;;;13.20;99.90;;;;;;5096519;28;20400;-84
2023/09/03 02:22:30;;;;;;;14.10;12.27;;;13.30;99.90;;;;;;5081230;28;20400;-84
2023/09/03 02:24:55;;;;;;;15.40;12.73;;;13.30;99.90;;;;;;5097426;28;20427;-84
2023/09/03 02:27:21;;;;;;;16.33;12.83;;;13.30;99.90;;;;;;5113986;28;20426;-85
2023/09/03 02:29:47;;;;;;;14.63;11.90;;;13.50;99.90;;;;;;5114586;28;20577;-85
2023/09/03 02:32:13;;;;;;;14.98;12.10;;;;;;;;;;5114052;27;20396;-85
2023/09/03 02:34:39;;;;;;;15.52;12.90;;;;;;;;;;5102678;28;20454;-83
2023/09/03 02:37:05;;;;;;;13.93;12.02;;;13.30;99.90;;;;;;5097971;28;20880;-84
2023/09/03 02:39:31;;;;;;;13.85;11.85;;;13.10;99.90;;;;;;5098830;28;20435;-83
2023/09/03 02:41:57;;;;;;;14.35;12.43;;;13.30;99.90;;;;;;5114121;28;20396;-84
2023/09/03 02:44:23;;;;;;;18.77;14.90;;;13.20;99.90;;;;;;5112854;28;20488;-84
2023/09/03 02:46:49;;;;;;;15.88;12.75;;;13.20;99.90;;;;;;5080678;28;20798;-85
2023/09/03 02:49:15;;;;;;;12.57;10.80;;;;;;;;;;5096428;28;20420;-83
2023/09/03 02:51:41;;;;;;;11.25;9.77;;;12.90;99.90;;;;;;5112745;28;20424;-85
2023/09/03 02:54:07;;;;;;;13.00;10.65;;;12.90;99.90;;;;;;5115165;28;20430;-83
2023/09/03 02:56:33;;;;;;;11.90;10.10;;;13.00;99.90;;;;;;5099545;28;20910;-83
2023/09/03 02:58:59;;;;;;;12.50;10.48;;;13.00;99.90;;;;;;5099488;28;20408;-84
2023/09/03 03:01:25;;;;;;;13.70;11.13;;;;;;;;;;5117221;28;20404;-83
2023/09/03 03:03:51;;;;;;;12.27;10.40;;;13.10;99.90;;;;;;5098157;27;20770;-84
2023/09/03 03:06:17;;;;;;;11.95;9.93;;;;;;;;;;5099395;28;20525;-84
2023/09/03 03:08:43;;;;;;;13.15;10.65;;;12.80;99.90;;;;;;5117807;28;20399;-85
2023/09/03 03:11:14;;;;;;;12.40;9.82;;;12.90;99.90;;;;;;5096801;28;20405;-84
2023/09/03 03:13:41;;;;;;;13.10;10.90;;;12.90;99.90;;;;;;5115011;28;20461;-84
2023/09/03 03:16:09;;;;;;;14.00;11.50;;;12.90;99.90;;;;;;5112322;28;20393;-83
2023/09/03 03:18:36;;;;;;;12.10;10.77;;;12.80;99.90;;;;;;5093646;28;20990;-83
2023/09/03 03:21:18;;;;;;;12.52;11.00;;;12.40;99.90;;;;;;5096930;28;20398;-83
2023/09/03 03:23:46;;;;;;;11.90;10.15;;;12.70;99.90;;;;;;5095493;28;20415;-83
2023/09/03 03:26:12;;;;;;;15.00;10.60;;;12.50;99.90;;;;;;5112519;28;20471;-84
2023/09/03 03:28:38;;;;;;;43.10;13.47;;;12.60;99.90;;;;;;5113035;28;20729;-83
2023/09/03 03:31:10;;;;;;;16.08;12.65;;;12.50;99.90;;;;;;5090556;28;20430;-84
2023/09/03 03:33:40;;;;;;;16.73;11.90;;;12.50;99.90;;;;;;5078416;28;20398;-83
2023/09/03 03:36:07;;;;;;;41.10;13.00;;;12.60;99.90;;;;;;5131772;28;20404;-83
2023/09/03 03:38:33;;;;;;;35.78;13.63;;;;;;;;;;5098668;28;20402;-82
2023/09/03 03:41:11;;;;;;;17.83;12.15;;;;;;;;;;5096766;28;20905;-84
2023/09/03 03:43:39;;;;;;;15.90;12.38;;;12.50;99.90;;;;;;5094967;28;20405;-85
2023/09/03 03:46:06;;;;;;;17.38;12.82;;;12.40;99.90;;;;;;5110750;28;20986;-84
2023/09/03 03:48:32;;;;;;;15.40;11.98;;;12.60;99.90;;;;;;5129259;28;20401;-84
2023/09/03 03:50:58;;;;;;;15.00;11.70;;;12.50;99.90;;;;;;5094447;28;20461;-84
2023/09/03 03:53:25;;;;;;;14.85;12.57;;;;;;;;;;5128431;28;20458;-84
2023/09/03 03:56:01;;;;;;;13.95;11.80;;;12.40;99.90;;;;;;5096487;28;20398;-84
2023/09/03 03:58:30;;;;;;;14.82;11.95;;;12.50;99.90;;;;;;5076782;28;20414;-85
2023/09/03 04:00:56;;;;;;;22.45;13.30;;;;;;;;;;5129265;27;20418;-84
2023/09/03 04:03:23;;;;;;;15.20;12.82;;;12.50;99.90;;;;;;5100303;28;20470;-85
2023/09/03 04:06:00;;;;;;;27.50;14.00;;;12.40;99.90;;;;;;5137803;27;20451;-84
2023/09/03 04:08:28;;;;;;;18.70;13.73;;;12.30;99.90;;;;;;5139028;27;20413;-84
2023/09/03 04:11:02;;;;;;;16.30;13.23;;;12.30;99.90;;;;;;5138900;27;20451;-84
2023/09/03 04:13:28;;;;;;;16.35;12.73;;;;;;;;;;5122536;28;20522;-83
2023/09/03 04:15:55;;;;;;;14.30;12.18;;;;;;;;;;5105377;28;20404;-83
2023/09/03 04:18:25;;;;;;;39.47;13.30;;;12.10;99.90;;;;;;5121046;28;20398;-84
2023/09/03 04:20:55;;;;;;;21.00;12.60;;;12.20;99.90;;;;;;5155975;27;20434;-82
2023/09/03 04:23:21;;;;;;;16.35;12.05;;;12.30;99.90;;;;;;5088161;28;20465;-84
2023/09/03 04:25:47;;;;;;;18.15;12.25;;;;;;;;;;5109503;28;20410;-83
2023/09/03 04:28:13;;;;;;;81.57;16.20;;;;;;;;;;5118195;28;20916;-83
2023/09/03 04:30:40;;;;;;;17.88;13.88;;;12.20;99.90;;;;;;5115647;28;20417;-84
2023/09/03 04:33:07;;;;;;;16.67;13.07;;;12.30;99.90;;;;;;5132184;27;20401;-84
2023/09/03 04:35:33;;;;;;;15.23;13.10;;;;;;;;;;5135550;27;20402;-84
2023/09/03 04:38:00;;;;;;;15.48;12.45;;;;;;;;;;5117174;28;20473;-84
2023/09/03 04:40:26;;;;;;;14.85;12.27;;;;;;;;;;5145940;27;20821;-84
2023/09/03 04:42:52;;;;;;;14.77;12.18;;;;;;;;;;5115027;28;20394;-84
2023/09/03 04:45:18;;;;;;;13.80;11.07;;;12.40;99.90;;;;;;5096525;28;20481;-84
2023/09/03 04:47:44;;;;;;;14.13;11.50;;;12.40;99.90;;;;;;5100144;28;20791;-83
2023/09/03 04:50:10;;;;;;;13.55;11.75;;;;;;;;;;5115709;28;20525;-84
2023/09/03 04:52:39;;;;;;;12.55;10.60;;;;;;;;;;5156540;27;20416;-84
2023/09/03 04:55:06;;;;;;;13.20;11.07;;;12.20;99.90;;;;;;5138106;28;20438;-84
2023/09/03 04:57:31;;;;;;;13.07;10.27;;;12.20;99.90;;;;;;5110143;28;20414;-83
2023/09/03 04:59:57;;;;;;;11.77;10.07;;;12.20;99.90;;;;;;5136460;27;20907;-84
2023/09/03 05:02:22;;;;;;;11.70;9.67;;;12.50;99.90;;;;;;5120917;28;20445;-84
2023/09/03 05:04:49;;;;;;;11.13;9.20;;;;;;;;;;5106249;28;20404;-84
2023/09/03 05:07:15;;;;;;;10.87;9.40;;;;;;;;;;5089366;28;20414;-84
2023/09/03 05:09:40;;;;;;;11.30;9.63;;;12.20;99.90;;;;;;5114942;28;20449;-82
2023/09/03 05:12:06;;;;;;;11.00;9.50;;;12.10;99.90;;;;;;5094107;28;20416;-84
2023/09/03 05:14:32;;;;;;;12.23;9.77;;;12.40;99.90;;;;;;5119098;28;20800;-84
2023/09/03 05:16:58;;;;;;;11.87;10.13;;;;;;;;;;5118344;28;20402;-84
2023/09/03 05:19:24;;;;;;;11.63;9.63;;;12.40;99.90;;;;;;5117655;28;20406;-84
2023/09/03 05:21:50;;;;;;;11.63;9.80;;;12.50;99.90;;;;;;5117735;28;20463;-84
2023/09/03 05:24:16;;;;;;;12.40;9.97;;;12.40;99.90;;;;;;5081658;28;20418;-83
2023/09/03 05:26:43;;;;;;;11.68;9.95;;;12.50;99.90;;;;;;5096457;28;20406;-83
2023/09/03 05:29:09;;;;;;;12.20;9.70;;;;;;;;;;5113878;28;20640;-84
2023/09/03 05:31:35;;;;;;;10.93;8.98;;;;;;;;;;5121055;28;20398;-84
2023/09/03 05:34:02;;;;;;;11.73;9.77;;;;;;;;;;5086859;28;20421;-84
2023/09/03 05:36:28;;;;;;;12.10;9.80;;;;;;;;;;5131814;27;20428;-83
2023/09/03 05:38:54;;;;;;;12.63;10.18;;;12.70;99.90;;;;;;5097245;28;20432;-83
2023/09/03 05:41:20;;;;;;;12.00;9.80;;;;;;;;;;5096574;28;20956;-83
2023/09/03 05:43:45;;;;;;;11.82;9.80;;;12.60;99.90;;;;;;5131666;27;20402;-83
2023/09/03 05:46:11;;;;;;;12.48;9.82;;;12.80;99.90;;;;;;5096848;28;20414;-83
2023/09/03 05:48:37;;;;;;;11.70;10.30;;;13.00;99.90;;;;;;5114680;28;20423;-84
2023/09/03 05:51:05;;;;;;;12.10;9.47;;;12.80;99.90;;;;;;5101735;28;20424;-84
2023/09/03 05:53:35;;;;;;;11.05;9.07;;;13.00;99.90;;;;;;5121250;28;20413;-84
2023/09/03 05:56:11;;;;;;;10.48;9.10;;;13.20;99.90;;;;;;5099734;28;20446;-83
2023/09/03 05:58:38;;;;;;;11.88;9.43;;;13.10;99.90;;;;;;5101118;28;20424;-83
2023/09/03 06:01:05;;;;;;;11.82;9.57;;;;;;;;;;5102808;28;20950;-83
2023/09/03 06:03:30;;;;;;;11.45;9.15;;;13.20;99.90;;;;;;5115838;28;20420;-84
2023/09/03 06:05:56;;;;;;;11.93;8.70;;;13.30;99.90;;;;;;5097179;28;20400;-77
2023/09/03 06:08:22;;;;;;;10.43;8.50;;;;;;;;;;5096063;28;20454;-77
2023/09/03 06:10:48;;;;;;;12.03;9.10;;;13.40;99.90;;;;;;5094605;28;20424;-76
2023/09/03 06:13:13;;;;;;;10.70;8.27;;;13.30;99.90;;;;;;5113143;28;20393;-83
2023/09/03 06:15:39;;;;;;;10.27;8.68;;;13.60;99.90;;;;;;5082818;28;20412;-83
2023/09/03 06:18:05;;;;;;;10.20;8.20;;;13.70;99.90;;;;;;5116402;28;20416;-83
2023/09/03 06:20:37;;;;;;;11.35;8.32;;;13.50;99.90;;;;;;5099317;28;20404;-83
2023/09/03 06:23:03;;;;;;;9.82;7.80;;;13.70;99.90;;;;;;5099341;28;20408;-83
2023/09/03 06:25:31;;;;;;;9.52;7.93;;;13.70;99.90;;;;;;5114821;28;20499;-84
2023/09/03 06:27:57;;;;;;;8.45;7.63;;;13.70;99.90;;;;;;5097726;28;20545;-84
2023/09/03 06:30:23;;;;;;;11.43;8.02;;;13.80;99.90;;;;;;5081107;28;20854;-84
2023/09/03 06:32:49;;;;;;;9.68;7.80;;;14.00;99.90;;;;;;5113784;28;20401;-84
2023/09/03 06:35:14;;;;;;;8.87;7.60;;;13.80;99.90;;;;;;5114419;28;20480;-83
2023/09/03 06:37:40;;;;;;;10.07;7.97;;;13.70;99.90;;;;;;5097363;28;20414;-82
2023/09/03 06:40:07;;;;;;;8.93;8.00;;;13.90;99.90;;;;;;5096105;28;20833;-83
2023/09/03 06:42:32;;;;;;;9.95;8.20;;;13.60;99.90;;;;;;5097511;28;20948;-84
2023/09/03 06:44:58;;;;;;;10.90;9.02;;;13.80;99.90;;;;;;5114129;28;20400;-83
2023/09/03 06:47:24;;;;;;;11.52;9.20;;;14.00;99.90;;;;;;5095834;28;20407;-83
2023/09/03 06:49:51;;;;;;;11.48;9.23;;;14.40;99.90;;;;;;5113559;28;20938;-83
2023/09/03 06:52:18;;;;;;;10.65;9.13;;;14.30;99.90;;;;;;5096436;28;20424;-84
2023/09/03 06:54:43;;;;;;;10.98;8.93;;;14.30;99.90;;;;;;5112414;28;20473;-83
2023/09/03 06:57:09;;;;;;;12.13;9.60;;;14.50;99.90;;;;;;5095406;28;20487;-83
2023/09/03 06:59:35;;;;;;;11.73;9.20;;;14.60;99.90;;;;;;5114576;28;20411;-84
2023/09/03 07:02:01;;;;;;;10.83;9.00;;;14.90;99.90;;;;;;5131724;27;20417;-84
2023/09/03 07:04:27;;;;;;;12.23;9.33;;;14.70;99.90;;;;;;5112520;28;20417;-83
2023/09/03 07:06:53;;;;;;;11.30;8.90;;;15.00;99.90;;;;;;5111372;28;20463;-83
2023/09/03 07:09:19;;;;;;;9.57;8.27;;;15.20;99.90;;;;;;5094567;28;20505;-83
2023/09/03 07:11:45;;;;;;;9.00;7.97;;;15.60;99.90;;;;;;5123229;27;20443;-83
2023/09/03 07:14:10;;;;;;;10.90;7.70;;;15.90;99.90;;;;;;5115571;28;20809;-83
2023/09/03 07:16:36;;;;;;;8.60;7.20;;;16.00;99.90;;;;;;5083776;28;20396;-83
2023/09/03 07:19:02;;;;;;;10.07;7.23;;;16.10;99.90;;;;;;5132274;27;20399;-83
2023/09/03 07:21:27;;;;;;;7.97;6.90;;;16.20;99.90;;;;;;5077274;28;20896;-83
2023/09/03 07:23:53;;;;;;;9.65;6.75;;;16.40;99.90;;;;;;5130205;27;20585;-84
2023/09/03 07:26:19;;;;;;;7.80;6.18;;;16.50;99.90;;;;;;5114021;28;20403;-84
2023/09/03 07:28:45;;;;;;;7.45;5.93;;;17.10;99.90;;;;;;5114309;28;20423;-85
2023/09/03 07:31:10;;;;;;;10.53;6.90;;;17.00;99.90;;;;;;5079875;28;20403;-84
2023/09/03 07:33:39;;;;;;;7.30;5.93;;;17.30;99.90;;;;;;5097001;28;20404;-85
2023/09/03 07:36:11;;;;;;;7.60;6.43;;;17.40;99.90;;;;;;5130453;27;20879;-84
2023/09/03 07:38:38;;;;;;;7.13;5.80;;;17.30;99.90;;;;;;5080506;28;20420;-84
2023/09/03 07:41:03;;;;;;;6.73;5.23;;;17.60;99.90;;;;;;5114914;28;20744;-84
2023/09/03 07:43:29;;;;;;;6.20;5.00;;;17.60;99.90;;;;;;5117805;28;20400;-83
2023/09/03 07:45:55;;;;;;;6.15;4.57;;;17.80;99.90;;;;;;5117347;28;20468;-84
2023/09/03 07:48:21;;;;;;;5.05;4.13;;;18.20;99.90;;;;;;5117889;28;20446;-78
2023/09/03 07:50:47;;;;;;;5.35;3.85;;;18.20;99.90;;;;;;5118118;28;20984;-77
2023/09/03 07:53:13;;;;;;;7.22;4.43;;;18.20;99.90;;;;;;5118584;28;20416;-77
2023/09/03 07:55:38;;;;;;;6.97;5.00;;;18.50;99.90;;;;;;5117069;28;20396;-77
2023/09/03 07:58:05;;;;;;;5.68;5.07;;;18.60;99.90;;;;;;5099086;28;20432;-77
2023/09/03 08:00:31;;;;;;;6.28;4.88;;;18.60;99.90;;;;;;5097983;28;20410;-77
2023/09/03 08:02:57;;;;;;;7.30;4.60;;;18.60;99.90;;;;;;5115538;28;20764;-77
2023/09/03 08:05:23;;;;;;;6.50;4.50;;;18.90;99.90;;;;;;5116058;28;20404;-76
2023/09/03 08:07:49;;;;;;;7.43;4.88;;;18.90;99.90;;;;;;5098097;28;20472;-78
2023/09/03 08:10:14;;;;;;;6.93;5.17;;;19.20;99.90;;;;;;5120153;28;20416;-77
2023/09/03 08:12:40;;;;;;;6.50;4.72;;;19.20;99.90;;;;;;5116433;28;20687;-78
2023/09/03 08:15:07;;;;;;;6.57;5.13;;;19.00;99.90;;;;;;5098967;28;20771;-77
2023/09/03 08:17:33;;;;;;;8.50;5.22;;;19.10;99.90;;;;;;5081890;28;20412;-77
2023/09/03 08:19:59;;;;;;;5.47;4.70;;;19.00;99.90;;;;;;5099441;28;20959;-77
2023/09/03 08:22:24;;;;;;;6.60;5.30;;;18.90;99.90;;;;;;5098582;28;20400;-78
2023/09/03 08:24:52;;;;;;;6.73;4.50;;;18.90;99.90;;;;;;5082250;28;20395;-77
2023/09/03 08:27:18;;;;;;;7.93;4.40;;;18.90;99.90;;;;;;5115705;28;20400;-76
2023/09/03 08:29:44;;;;;;;5.67;3.93;;;19.10;99.90;;;;;;5116305;28;20423;-76
2023/09/03 08:32:09;;;;;;;7.95;3.90;;;19.30;99.90;;;;;;5101187;27;20467;-78
2023/09/03 08:34:35;;;;;;;7.13;4.17;;;19.70;99.90;;;;;;5112937;27;20405;-77
2023/09/03 08:37:01;;;;;;;6.07;4.23;;;19.60;99.90;;;;;;5112694;28;20405;-77
2023/09/03 08:39:26;;;;;;;6.45;4.35;;;19.60;99.90;;;;;;5078302;28;20482;-78
2023/09/03 08:41:52;;;;;;;5.32;3.95;;;19.80;99.90;;;;;;5094960;28;20437;-77
2023/09/03 08:44:42;;;;;;;6.43;4.43;;;19.70;99.90;;;;;;5094872;28;20398;-77
2023/09/03 08:47:11;;;;;;;5.68;4.30;;;19.80;99.90;;;;;;5092821;28;20424;-78
2023/09/03 08:49:39;;;;;;;5.47;3.53;;;19.70;99.90;;;;;;5097207;28;20509;-77
2023/09/03 08:52:06;;;;;;;7.03;4.03;;;19.60;99.90;;;;;;5115193;28;20406;-77
2023/09/03 08:54:32;;;;;;;6.95;3.78;;;19.70;99.90;;;;;;5115080;28;20397;-78
2023/09/03 08:57:01;;;;;;;5.35;3.90;;;19.90;99.90;;;;;;5083681;28;20400;-85
2023/09/03 08:59:27;;;;;;;5.07;3.75;;;20.10;99.90;;;;;;5116878;28;20423;-85
2023/09/03 09:01:56;;;;;;;5.35;3.97;;;20.20;99.90;;;;;;5100210;28;20479;-85
2023/09/03 09:04:23;;;;;;;6.47;4.17;;;20.30;99.90;;;;;;5151220;27;20513;-86
2023/09/03 09:06:49;;;;;;;5.97;4.55;;;20.60;99.90;;;;;;5099763;28;20404;-84
2023/09/03 09:09:16;;;;;;;4.72;3.30;;;20.30;99.90;;;;;;5115027;27;20425;-85
2023/09/03 09:12:01;;;;;;;5.30;3.50;;;20.40;99.90;;;;;;5083819;28;20713;-86
2023/09/03 09:14:44;;;;;;;4.97;3.25;;;20.40;99.90;;;;;;5100468;28;20413;-85
2023/09/03 09:17:13;;;;;;;5.07;3.20;;;19.40;99.90;;;;;;5130542;27;20405;-85
2023/09/03 09:19:39;;;;;;;4.68;3.40;;;20.80;99.90;;;;;;5112418;28;20753;-85
2023/09/03 09:22:05;;;;;;;4.60;3.20;;;20.50;99.90;;;;;;5095851;28;20886;-86
2023/09/03 09:24:32;;;;;;;4.60;2.70;;;21.20;99.90;;;;;;5094964;28;20432;-84
2023/09/03 09:27:16;;;;;;;5.95;3.65;;;21.00;99.90;;;;;;5129501;27;20502;-84
2023/09/03 09:29:43;;;;;;;4.05;2.80;;;20.50;99.90;;;;;;5129337;27;20422;-85
2023/09/03 09:32:19;;;;;;;4.38;2.60;;;20.30;99.90;;;;;;5130209;27;20807;-85
2023/09/03 09:34:45;;;;;;;6.15;3.67;;;20.60;99.90;;;;;;5094861;28;20409;-86
2023/09/03 09:37:12;;;;;;;4.53;3.30;;;20.70;99.90;;;;;;5103450;28;20412;-86
2023/09/03 09:39:46;;;;;;;5.82;3.90;;;20.70;99.90;;;;;;5098778;28;20732;-85
2023/09/03 09:42:13;;;;;;;4.80;3.65;;;20.60;99.90;;;;;;5116391;28;20404;-85
2023/09/03 09:44:48;;;;;;;5.03;3.30;;;20.50;99.90;;;;;;5115062;28;20404;-86
2023/09/03 09:47:16;;;;;;;4.88;3.33;;;20.80;99.90;;;;;;5113193;28;20763;-86
2023/09/03 09:49:45;;;;;;;4.75;3.28;;;21.20;99.90;;;;;;5098259;28;20427;-85
2023/09/03 09:52:12;;;;;;;5.97;3.30;;;21.50;99.90;;;;;;5109158;28;20776;-85
2023/09/03 09:54:42;;;;;;;5.72;3.50;;;21.50;99.90;;;;;;5094560;28;20379;-86
2023/09/03 09:57:12;;;;;;;5.88;2.90;;;21.60;99.90;;;;;;5077805;28;20398;-86
2023/09/03 09:59:39;;;;;;;4.93;2.70;;;21.70;99.90;;;;;;5128573;27;20414;-85
2023/09/03 10:02:13;;;;;;;4.77;2.67;;;21.70;99.90;;;;;;5094005;28;20551;-86
2023/09/03 10:04:46;;;;;;;4.53;2.30;;;22.10;99.90;;;;;;5077962;28;20529;-86
2023/09/03 10:07:13;;;;;;;3.13;1.80;;;22.20;99.90;;;;;;5136670;27;20462;-87
2023/09/03 10:09:40;;;;;;;5.93;2.83;;;22.30;99.90;;;;;;5081054;28;20423;-86
2023/09/03 10:12:08;;;;;;;6.15;2.72;;;22.30;99.90;;;;;;5097657;28;20419;-85
2023/09/03 10:14:34;;;;;;;5.53;2.63;;;22.70;99.90;;;;;;5105186;28;20403;-86
2023/09/03 10:17:05;;;;;;;4.68;2.60;;;22.80;99.90;;;;;;5102025;28;20403;-87
2023/09/03 10:19:44;;;;;;;5.43;2.58;;;22.90;99.90;;;;;;5098178;28;20457;-87
2023/09/03 10:22:14;;;;;;;4.50;2.22;;;22.70;99.90;;;;;;5088550;28;20831;-78
2023/09/03 10:24:43;;;;;;;4.35;2.55;;;22.70;99.90;;;;;;5085069;28;20503;-77
2023/09/03 10:27:12;;;;;;;4.95;2.22;;;23.00;99.90;;;;;;5147514;27;20400;-76
2023/09/03 10:29:44;;;;;;;4.15;2.40;;;22.80;99.90;;;;;;5095645;28;20515;-77
2023/09/03 10:32:14;;;;;;;2.80;2.00;;;22.70;99.90;;;;;;5113677;28;20399;-77
2023/09/03 10:34:40;;;;;;;4.18;2.20;;;22.60;99.90;;;;;;5113653;28;20392;-77
2023/09/03 10:37:11;;;;;;;3.10;1.90;;;22.70;99.90;;;;;;5112137;28;20945;-77
2023/09/03 10:39:43;;;;;;;3.75;2.33;;;22.80;99.90;;;;;;5076003;28;20406;-77
2023/09/03 10:42:17;;;;;;;3.92;2.80;;;22.70;99.90;;;;;;5076825;28;20498;-77
2023/09/03 10:44:54;;;;;;;4.43;2.83;;;22.70;99.90;;;;;;5092414;28;20398;-77
2023/09/03 10:47:20;;;;;;;4.22;2.47;;;22.70;99.90;;;;;;5110692;28;20412;-77
2023/09/03 10:49:48;;;;;;;3.85;2.47;;;23.00;99.90;;;;;;5096730;28;20427;-77
2023/09/03 10:52:30;;;;;;;3.00;1.83;;;22.90;99.90;;;;;;5094644;28;20907;-77
2023/09/03 10:55:21;;;;;;;3.60;1.83;;;22.90;99.90;;;;;;5112959;28;20396;-78
2023/09/03 10:58:16;;;;;;;3.47;1.80;;;23.00;99.90;;;;;;5101798;28;20409;-77
2023/09/03 11:01:17;;;;;;;5.63;2.00;;;22.80;99.90;;;;;;5094268;28;20426;-86
2023/09/03 11:03:48;;;;;;;3.33;1.90;;;22.40;99.90;;;;;;5116422;28;20409;-86
2023/09/03 11:06:17;;;;;;;3.72;1.80;;;22.80;99.90;;;;;;5081967;28;20404;-85
2023/09/03 11:08:43;;;;;;;3.60;1.88;;;23.10;99.90;;;;;;5126755;28;20425;-86
2023/09/03 11:11:11;;;;;;;4.20;1.80;;;23.20;99.90;;;;;;5087132;28;20505;-87
2023/09/03 11:13:37;;;;;;;4.40;2.30;;;23.30;99.90;;;;;;5098162;28;20401;-87
2023/09/03 11:16:03;;;;;;;5.18;2.00;;;23.50;99.90;;;;;;5113814;28;20401;-88
2023/09/03 11:18:30;;;;;;;4.27;2.00;;;23.50;99.90;;;;;;5112741;28;20401;-88
2023/09/03 11:20:57;;;;;;;4.40;2.08;;;23.30;99.90;;;;;;5108487;28;20441;-87
2023/09/03 11:23:23;;;;;;;4.18;1.90;;;23.10;99.90;;;;;;5132507;28;20432;-86
2023/09/03 11:25:48;;;;;;;3.53;2.08;;;23.40;99.90;;;;;;5109590;28;20423;-86
2023/09/03 11:28:15;;;;;;;4.38;1.80;;;23.10;99.90;;;;;;5116019;28;20911;-87
2023/09/03 11:30:45;;;;;;;3.88;1.70;;;23.10;99.90;;;;;;5099625;28;20913;-87
2023/09/03 11:33:27;;;;;;;2.90;1.50;;;21.50;99.90;;;;;;5098045;28;20401;-86
2023/09/03 11:35:53;;;;;;;3.60;1.60;;;22.90;99.90;;;;;;5084510;28;20980;-87
2023/09/03 11:38:23;;;;;;;3.95;2.10;;;23.20;99.90;;;;;;5077715;28;20491;-87
2023/09/03 11:40:56;;;;;;;3.45;1.60;;;23.60;99.90;;;;;;5078703;28;20402;-86
2023/09/03 11:43:23;;;;;;;5.80;1.65;;;24.40;99.90;;;;;;5078096;28;20430;-86
2023/09/03 11:45:49;;;;;;;4.07;1.70;;;24.20;99.90;;;;;;5136564;27;20422;-87
2023/09/03 11:48:15;;;;;;;2.78;1.73;;;24.00;99.90;;;;;;5099595;28;20497;-87
2023/09/03 11:50:40;;;;;;;3.53;1.60;;;24.20;99.90;;;;;;5077851;28;20426;-87
2023/09/03 11:53:08;;;;;;;2.83;1.50;;;23.90;99.90;;;;;;5076735;28;20818;-88
2023/09/03 11:55:48;;;;;;;3.03;1.70;;;23.80;99.90;;;;;;5077267;28;20484;-88
2023/09/03 11:58:18;;;;;;;3.28;1.60;;;24.00;99.90;;;;;;5127749;27;20393;-86
2023/09/03 12:00:46;;;;;;;3.65;1.55;;;24.00;99.90;;;;;;5106089;28;20442;-87
2023/09/03 12:03:12;;;;;;;3.05;1.60;;;24.10;99.90;;;;;;5070412;28;20425;-77
2023/09/03 12:05:38;;;;;;;2.63;1.60;;;24.50;99.90;;;;;;5092287;28;20440;-77
2023/09/03 12:08:05;;;;;;;3.42;1.60;;;24.80;99.90;;;;;;5074642;28;20405;-77
2023/09/03 12:10:31;;;;;;;2.83;1.48;;;24.80;99.90;;;;;;5088912;28;20444;-77
2023/09/03 12:13:01;;;;;;;4.38;1.67;;;24.90;99.90;;;;;;5095263;28;20740;-77
2023/09/03 12:15:29;;;;;;;3.10;1.55;;;24.90;99.90;;;;;;5095147;28;20740;-78
2023/09/03 12:18:07;;;;;;;2.55;1.45;;;25.00;99.90;;;;;;5111228;28;20888;-77
2023/09/03 12:20:33;;;;;;;2.67;1.60;;;25.10;99.90;;;;;;5094594;28;20492;-77
2023/09/03 12:23:17;;;;;;;2.90;1.52;;;25.40;99.90;;;;;;5111002;28;20401;-77
2023/09/03 12:25:43;;;;;;;3.60;1.90;;;25.90;99.90;;;;;;5110460;28;20508;-76
2023/09/03 12:28:10;;;;;;;3.50;1.60;;;25.40;99.90;;;;;;5098050;28;20432;-78
2023/09/03 12:30:58;;;;;;;3.58;1.60;;;25.20;99.90;;;;;;5098475;28;20905;-78
2023/09/03 12:33:43;;;;;;;3.25;1.63;;;25.20;99.90;;;;;;5098428;28;20508;-77
2023/09/03 12:36:14;;;;;;;3.50;1.67;;;25.30;99.90;;;;;;5114839;28;20891;-77
2023/09/03 12:39:00;;;;;;;2.53;1.50;;;25.30;99.90;;;;;;5085300;28;20411;-76
2023/09/03 12:41:28;;;;;;;2.78;1.50;;;25.50;99.90;;;;;;5077982;28;20532;-78
2023/09/03 12:44:09;;;;;;;2.25;1.48;;;25.70;99.90;;;;;;5128388;27;20406;-78
2023/09/03 12:46:38;;;;;;;3.13;1.63;;;25.60;99.90;;;;;;5110411;28;20493;-78
2023/09/03 12:49:04;;;;;;;3.28;1.60;;;25.80;99.90;;;;;;5128590;27;20419;-78
2023/09/03 12:51:30;;;;;;;2.50;1.40;;;25.90;99.90;;;;;;5077344;28;20791;-77
2023/09/03 12:53:56;;;;;;;2.70;1.50;;;26.00;99.90;;;;;;5060610;28;20410;-77
2023/09/03 12:56:22;;;;;;;2.37;1.50;;;26.50;99.90;;;;;;5094155;28;20750;-77